createdAt,value
2018-03-20T00:01:05.999Z,47.30
2018-03-20T00:03:32.243Z,47.30
2018-03-20T00:05:58.943Z,46.80
2018-03-20T00:08:25.747Z,45.90
2018-03-20T00:10:51.995Z,46.50
2018-03-20T00:13:18.292Z,47.20
2018-03-20T00:15:44.543Z,48.10
2018-03-20T00:18:10.823Z,47.90
2018-03-20T00:20:37.102Z,48.30
2018-03-20T00:23:03.408Z,47.50
2018-03-20T00:25:29.682Z,48.10
2018-03-20T00:27:56.030Z,47.90
2018-03-20T00:30:22.268Z,48.20
2018-03-20T00:32:48.571Z,48.60
2018-03-20T00:35:14.820Z,48.70
2018-03-20T00:37:41.116Z,49.40
2018-03-20T00:40:07.384Z,50.10
2018-03-20T00:42:33.650Z,50.50
2018-03-20T00:44:59.887Z,49.90
2018-03-20T00:47:26.202Z,50.00
2018-03-20T00:49:52.483Z,50.60
2018-03-20T00:52:18.748Z,50.90
2018-03-20T00:54:45.011Z,51.60
2018-03-20T00:57:11.316Z,52.10
2018-03-20T00:59:37.594Z,52.40
2018-03-20T01:02:03.879Z,52.50
2018-03-20T01:04:30.177Z,52.50
2018-03-20T01:06:56.428Z,51.90
2018-03-20T01:09:23.473Z,51.50
2018-03-20T01:11:49.719Z,51.40
2018-03-20T01:14:16.008Z,50.80
2018-03-20T01:16:42.275Z,51.70
2018-03-20T01:19:08.824Z,52.70
2018-03-20T01:21:35.080Z,52.80
2018-03-20T01:24:01.355Z,53.10
2018-03-20T01:26:27.684Z,52.90
2018-03-20T01:28:53.963Z,52.50
2018-03-20T01:31:20.207Z,52.10
2018-03-20T01:33:47.357Z,50.50
2018-03-20T01:36:13.623Z,49.60
2018-03-20T01:38:39.949Z,50.50
2018-03-20T01:41:06.204Z,50.40
2018-03-20T01:43:33.355Z,51.50
2018-03-20T01:45:59.596Z,51.00
2018-03-20T01:48:26.152Z,50.80
2018-03-20T01:50:52.411Z,50.10
2018-03-20T01:53:18.767Z,51.10
2018-03-20T01:55:45.079Z,51.40
2018-03-20T01:58:11.381Z,50.00
2018-03-20T02:00:37.668Z,51.20
2018-03-20T02:03:03.925Z,50.50
2018-03-20T02:05:30.192Z,50.60
2018-03-20T02:07:56.475Z,49.70
2018-03-20T02:10:23.468Z,49.60
2018-03-20T02:12:49.699Z,50.00
2018-03-20T02:15:16.183Z,49.80
2018-03-20T02:17:42.441Z,50.10
2018-03-20T02:20:08.897Z,50.10
2018-03-20T02:22:35.174Z,50.70
2018-03-20T02:25:01.482Z,51.60
2018-03-20T02:27:27.732Z,51.40
2018-03-20T02:29:54.343Z,50.70
2018-03-20T02:32:20.594Z,51.10
2018-03-20T02:34:47.087Z,51.00
2018-03-20T02:37:14.106Z,51.00
2018-03-20T02:39:40.403Z,51.00
2018-03-20T02:42:07.012Z,51.90
2018-03-20T02:44:33.339Z,52.40
2018-03-20T02:47:00.380Z,52.10
2018-03-20T02:49:27.367Z,51.40
2018-03-20T02:51:54.123Z,51.30
2018-03-20T02:54:20.395Z,51.80
2018-03-20T02:56:46.688Z,51.80
2018-03-20T02:59:12.935Z,51.90
2018-03-20T03:01:39.216Z,52.40
2018-03-20T03:04:05.969Z,52.00
2018-03-20T03:06:32.230Z,52.20
2018-03-20T03:08:58.503Z,52.70
2018-03-20T03:11:24.775Z,52.30
2018-03-20T03:13:51.031Z,52.70
2018-03-20T03:16:17.312Z,52.10
2018-03-20T03:18:43.571Z,52.20
2018-03-20T03:21:09.939Z,52.20
2018-03-20T03:23:36.191Z,52.60
2018-03-20T03:26:02.667Z,52.10
2018-03-20T03:28:29.392Z,52.40
2018-03-20T03:30:55.753Z,52.40
2018-03-20T03:33:22.040Z,51.80
2018-03-20T03:35:49.731Z,52.40
2018-03-20T03:38:15.996Z,52.40
2018-03-20T03:40:42.255Z,52.70
2018-03-20T03:43:08.878Z,52.30
2018-03-20T03:45:35.138Z,51.50
2018-03-20T03:48:01.402Z,51.70
2018-03-20T03:50:27.655Z,51.90
2018-03-20T03:52:53.924Z,51.90
2018-03-20T03:55:20.176Z,51.30
2018-03-20T03:57:46.458Z,51.70
2018-03-20T04:00:13.121Z,51.70
2018-03-20T04:02:39.405Z,50.70
2018-03-20T04:05:06.157Z,52.00
2018-03-20T04:07:32.436Z,54.10
2018-03-20T04:09:58.715Z,55.00
2018-03-20T04:12:25.012Z,55.80
2018-03-20T04:14:51.288Z,56.30
2018-03-20T04:17:18.166Z,56.60
2018-03-20T04:19:44.415Z,57.00
2018-03-20T04:22:10.688Z,57.30
2018-03-20T04:24:36.947Z,57.60
2018-03-20T04:27:03.292Z,56.90
2018-03-20T04:29:30.512Z,57.40
2018-03-20T04:31:56.783Z,57.50
2018-03-20T04:34:23.120Z,57.80
2018-03-20T04:36:49.418Z,57.30
2018-03-20T04:39:15.932Z,57.50
2018-03-20T04:41:42.184Z,56.80
2018-03-20T04:44:08.460Z,56.60
2018-03-20T04:46:34.722Z,55.80
2018-03-20T04:49:01.003Z,55.90
2018-03-20T04:51:27.275Z,55.60
2018-03-20T04:53:53.543Z,55.60
2018-03-20T04:56:19.810Z,55.60
2018-03-20T04:58:46.844Z,55.60
2018-03-20T05:01:13.556Z,55.60
2018-03-20T05:03:39.852Z,55.40
2018-03-20T05:06:06.256Z,55.10
2018-03-20T05:08:32.848Z,54.70
2018-03-20T05:10:59.479Z,55.00
2018-03-20T05:13:25.757Z,54.80
2018-03-20T05:15:52.104Z,54.10
2018-03-20T05:18:18.345Z,54.50
2018-03-20T05:20:50.167Z,54.30
2018-03-20T05:23:29.287Z,54.20
2018-03-20T05:25:55.571Z,54.50
2018-03-20T05:28:23.474Z,54.30
2018-03-20T05:30:49.941Z,54.90
2018-03-20T05:33:16.304Z,54.30
2018-03-20T05:35:42.679Z,54.50
2018-03-20T05:38:09.474Z,54.50
2018-03-20T05:40:35.791Z,55.50
2018-03-20T05:43:02.855Z,56.80
2018-03-20T05:45:29.151Z,56.20
2018-03-20T05:48:01.444Z,57.30
2018-03-20T05:50:44.479Z,56.30
2018-03-20T05:53:11.643Z,55.70
2018-03-20T05:55:38.681Z,56.40
2018-03-20T05:58:06.622Z,59.00
2018-03-20T06:00:33.169Z,59.00
2018-03-20T06:02:59.576Z,61.90
2018-03-20T06:05:26.093Z,65.00
2018-03-20T06:07:52.359Z,67.90
2018-03-20T06:10:23.383Z,69.20
2018-03-20T06:12:49.731Z,70.10
2018-03-20T06:15:16.020Z,71.80
2018-03-20T06:17:42.359Z,72.20
2018-03-20T06:20:08.620Z,73.00
2018-03-20T06:22:34.903Z,73.20
2018-03-20T06:25:01.325Z,74.00
2018-03-20T06:27:27.598Z,74.40
2018-03-20T06:29:53.847Z,74.70
2018-03-20T06:32:20.186Z,75.30
2018-03-20T06:34:46.690Z,74.20
2018-03-20T06:37:12.957Z,74.10
2018-03-20T06:39:39.563Z,73.60
2018-03-20T06:42:05.950Z,73.60
2018-03-20T06:44:32.549Z,74.20
2018-03-20T06:46:58.859Z,74.30
2018-03-20T06:49:25.100Z,74.50
2018-03-20T06:51:51.455Z,75.30
2018-03-20T06:54:17.721Z,76.00
2018-03-20T06:56:43.980Z,75.10
2018-03-20T06:59:10.264Z,74.90
2018-03-20T07:01:38.413Z,76.00
2018-03-20T07:04:04.951Z,76.80
2018-03-20T07:06:31.411Z,77.70
2018-03-20T07:08:57.735Z,76.80
2018-03-20T07:11:24.010Z,76.90
2018-03-20T07:13:50.372Z,77.00
2018-03-20T07:16:16.622Z,77.90
2018-03-20T07:18:43.011Z,77.80
2018-03-20T07:21:09.309Z,78.50
2018-03-20T07:23:37.562Z,79.00
2018-03-20T07:26:03.973Z,79.60
2018-03-20T07:28:30.262Z,79.30
2018-03-20T07:30:56.572Z,79.00
2018-03-20T07:33:22.876Z,78.60
2018-03-20T07:35:49.797Z,78.00
2018-03-20T07:38:16.895Z,79.20
2018-03-20T07:40:44.205Z,79.70
2018-03-20T07:43:11.401Z,78.20
2018-03-20T07:45:37.746Z,78.10
2018-03-20T07:48:04.050Z,77.40
2018-03-20T07:50:30.372Z,78.30
2018-03-20T07:52:57.368Z,77.70
2018-03-20T07:55:24.412Z,77.70
2018-03-20T07:57:50.703Z,77.70
2018-03-20T08:00:17.716Z,77.80
2018-03-20T08:02:43.981Z,77.70
2018-03-20T08:05:10.976Z,76.70
2018-03-20T08:07:37.267Z,76.60
2018-03-20T08:10:04.339Z,77.60
2018-03-20T08:12:30.695Z,77.60
2018-03-20T08:14:57.125Z,77.60
2018-03-20T08:17:23.367Z,76.80
2018-03-20T08:19:49.644Z,77.00
2018-03-20T08:22:15.930Z,77.00
2018-03-20T08:24:42.554Z,77.30
2018-03-20T08:27:09.069Z,77.50
2018-03-20T08:29:36.071Z,77.50
2018-03-20T08:32:02.327Z,77.50
2018-03-20T08:34:28.620Z,76.70
2018-03-20T08:36:54.903Z,76.90
2018-03-20T08:39:21.188Z,76.80
2018-03-20T08:41:47.468Z,77.00
2018-03-20T08:44:14.456Z,78.20
2018-03-20T08:46:40.742Z,79.40
2018-03-20T08:49:06.987Z,78.20
2018-03-20T08:51:33.338Z,77.60
2018-03-20T08:53:59.610Z,78.10
2018-03-20T08:56:25.875Z,77.90
2018-03-20T08:58:52.173Z,78.60
2018-03-20T09:01:18.563Z,79.10
2018-03-20T09:03:44.927Z,79.10
2018-03-20T09:06:11.219Z,79.70
2018-03-20T09:08:37.462Z,80.80
2018-03-20T09:11:03.767Z,81.20
2018-03-20T09:13:30.015Z,81.50
2018-03-20T09:15:56.543Z,81.90
2018-03-20T09:18:22.795Z,82.00
2018-03-20T09:20:49.532Z,82.00
2018-03-20T09:23:15.776Z,81.40
2018-03-20T09:25:42.804Z,81.00
2018-03-20T09:28:09.206Z,80.40
2018-03-20T09:30:35.779Z,80.10
2018-03-20T09:33:02.036Z,78.80
2018-03-20T09:35:28.338Z,78.30
2018-03-20T09:37:54.903Z,78.10
2018-03-20T09:40:21.151Z,78.00
2018-03-20T09:42:47.567Z,77.10
2018-03-20T09:45:13.812Z,76.10
2018-03-20T09:47:40.131Z,76.20
2018-03-20T09:50:06.760Z,76.30
2018-03-20T09:52:33.044Z,75.60
2018-03-20T09:54:59.284Z,76.00
2018-03-20T09:57:27.243Z,75.40
2018-03-20T09:59:53.491Z,75.40
2018-03-20T10:02:20.495Z,76.20
2018-03-20T10:04:47.539Z,77.00
2018-03-20T10:07:13.796Z,77.00
2018-03-20T10:09:40.130Z,78.10
2018-03-20T10:12:06.580Z,76.90
2018-03-20T10:14:33.572Z,76.30
2018-03-20T10:17:00.794Z,76.30
2018-03-20T10:19:27.895Z,75.10
2018-03-20T10:21:55.982Z,75.00
2018-03-20T10:24:22.362Z,73.00
2018-03-20T10:26:48.622Z,73.70
2018-03-20T10:29:14.881Z,72.00
2018-03-20T10:31:41.125Z,71.40
2018-03-20T10:34:07.379Z,70.80
2018-03-20T10:36:33.728Z,69.00
2018-03-20T10:39:00.004Z,67.50
2018-03-20T10:41:26.302Z,69.60
2018-03-20T10:43:54.486Z,69.20
2018-03-20T10:46:21.312Z,71.00
2018-03-20T10:48:47.762Z,66.60
2018-03-20T10:51:14.060Z,64.70
2018-03-20T10:53:41.290Z,61.80
2018-03-20T10:56:08.579Z,62.80
2018-03-20T10:58:34.887Z,62.80
2018-03-20T11:01:06.111Z,61.50
2018-03-20T11:03:42.582Z,61.60
2018-03-20T11:06:08.907Z,62.30
2018-03-20T11:08:35.175Z,61.00
2018-03-20T11:11:11.885Z,62.10
2018-03-20T11:13:38.275Z,56.90
2018-03-20T11:16:04.690Z,58.30
2018-03-20T11:18:33.070Z,55.90
2018-03-20T11:20:59.499Z,55.80
2018-03-20T11:23:27.024Z,55.80
2018-03-20T11:25:54.413Z,54.50
2018-03-20T11:28:21.930Z,54.00
2018-03-20T11:30:50.013Z,52.40
2018-03-20T11:33:18.865Z,52.00
2018-03-20T11:35:46.257Z,51.50
2018-03-20T11:38:13.571Z,47.90
2018-03-20T11:40:41.056Z,50.90
2018-03-20T11:43:08.365Z,51.50
2018-03-20T11:45:35.782Z,49.40
2018-03-20T11:48:03.073Z,48.50
2018-03-20T11:50:30.351Z,50.40
2018-03-20T11:52:57.562Z,49.10
2018-03-20T11:55:24.947Z,49.00
2018-03-20T11:57:52.358Z,47.40
2018-03-20T12:00:19.750Z,46.80
2018-03-20T12:02:47.149Z,46.30
2018-03-20T12:05:14.583Z,44.90
2018-03-20T12:07:54.517Z,44.50
2018-03-20T12:10:22.657Z,42.70
2018-03-20T12:12:50.033Z,42.70
2018-03-20T12:15:17.564Z,41.50
2018-03-20T12:17:45.057Z,41.30
2018-03-20T12:20:12.551Z,40.80
2018-03-20T12:22:40.218Z,40.70
2018-03-20T12:25:24.752Z,40.00
2018-03-20T12:27:52.696Z,40.40
2018-03-20T12:30:20.024Z,41.00
2018-03-20T12:32:47.435Z,39.10
2018-03-20T12:35:14.752Z,40.30
2018-03-20T12:37:47.321Z,40.30
2018-03-20T12:40:19.448Z,39.70
2018-03-20T12:42:45.695Z,38.40
2018-03-20T12:45:11.997Z,37.40
2018-03-20T12:47:38.232Z,36.30
2018-03-20T12:50:04.822Z,38.00
2018-03-20T12:52:31.899Z,37.30
2018-03-20T12:54:58.204Z,37.30
2018-03-20T12:57:25.266Z,35.00
2018-03-20T12:59:52.247Z,35.80
2018-03-20T13:02:18.644Z,35.80
2018-03-20T13:04:45.639Z,35.80
2018-03-20T13:07:12.230Z,35.80
2018-03-20T13:09:38.626Z,33.50
2018-03-20T13:12:05.028Z,29.60
2018-03-20T13:14:31.808Z,30.40
2018-03-20T13:16:58.089Z,31.70
2018-03-20T13:19:24.355Z,29.80
2018-03-20T13:21:50.694Z,29.70
2018-03-20T13:24:16.943Z,29.20
2018-03-20T13:26:43.214Z,29.00
2018-03-20T13:29:09.919Z,27.80
2018-03-20T13:31:36.202Z,29.60
2018-03-20T13:34:02.463Z,28.80
2018-03-20T13:36:28.887Z,30.00
2018-03-20T13:38:55.157Z,27.80
2018-03-20T13:41:21.563Z,29.50
2018-03-20T13:43:47.926Z,30.00
2018-03-20T13:46:14.211Z,26.80
2018-03-20T13:48:40.483Z,27.30
2018-03-20T13:51:06.740Z,27.60
2018-03-20T13:53:33.160Z,28.20
2018-03-20T13:55:59.435Z,25.20
2018-03-20T13:58:25.719Z,27.20
2018-03-20T14:00:52.571Z,26.10
2018-03-20T14:03:18.836Z,24.40
2018-03-20T14:05:45.120Z,26.40
2018-03-20T14:08:11.401Z,25.90
2018-03-20T14:10:37.648Z,24.80
2018-03-20T14:13:03.923Z,24.80
2018-03-20T14:15:30.192Z,23.50
2018-03-20T14:17:56.482Z,23.50
2018-03-20T14:20:23.838Z,23.20
2018-03-20T14:22:50.154Z,23.10
2018-03-20T14:25:16.420Z,20.90
2018-03-20T14:27:42.740Z,21.10
2018-03-20T14:30:08.978Z,19.50
2018-03-20T14:32:41.383Z,17.80
2018-03-20T14:35:07.667Z,18.00
2018-03-20T14:37:33.916Z,17.10
2018-03-20T14:40:00.951Z,16.20
2018-03-20T14:42:27.966Z,17.10
2018-03-20T14:44:56.857Z,17.10
2018-03-20T14:47:23.877Z,15.50
2018-03-20T14:49:50.252Z,14.60
2018-03-20T14:52:16.488Z,15.10
2018-03-20T14:54:42.754Z,14.90
2018-03-20T14:57:09.764Z,14.90
2018-03-20T14:59:36.451Z,14.90
2018-03-20T15:02:03.478Z,15.00
2018-03-20T15:04:29.766Z,15.00
2018-03-20T15:06:56.317Z,14.60
2018-03-20T15:09:22.826Z,14.30
2018-03-20T15:11:49.102Z,15.30
2018-03-20T15:14:16.420Z,15.60
2018-03-20T15:16:43.812Z,15.20
2018-03-20T15:19:10.132Z,15.30
2018-03-20T15:21:36.672Z,14.80
2018-03-20T15:24:03.294Z,14.40
2018-03-20T15:26:29.680Z,13.80
2018-03-20T15:28:55.976Z,14.50
2018-03-20T15:31:22.274Z,14.30
2018-03-20T15:33:48.859Z,15.10
2018-03-20T15:36:15.421Z,14.80
2018-03-20T15:38:43.649Z,15.10
2018-03-20T15:41:09.977Z,14.20
2018-03-20T15:43:36.228Z,13.90
2018-03-20T15:46:02.500Z,14.70
2018-03-20T15:48:29.294Z,13.30
2018-03-20T15:50:56.434Z,13.90
2018-03-20T15:53:22.712Z,15.50
2018-03-20T15:55:49.003Z,17.10
2018-03-20T15:58:15.301Z,17.00
2018-03-20T16:00:41.620Z,17.20
2018-03-20T16:03:07.863Z,17.10
2018-03-20T16:05:34.387Z,16.10
2018-03-20T16:08:00.632Z,15.00
2018-03-20T16:10:27.762Z,15.60
2018-03-20T16:12:54.176Z,15.60
2018-03-20T16:15:20.582Z,15.10
2018-03-20T16:17:46.832Z,13.80
2018-03-20T16:20:13.529Z,14.10
2018-03-20T16:22:40.045Z,14.10
2018-03-20T16:25:06.836Z,14.20
2018-03-20T16:27:33.596Z,15.50
2018-03-20T16:29:59.882Z,15.30
2018-03-20T16:32:29.504Z,14.50
2018-03-20T16:34:57.318Z,14.50
2018-03-20T16:37:32.604Z,14.50
2018-03-20T16:40:00.245Z,14.60
2018-03-20T16:42:27.284Z,14.60
2018-03-20T16:44:54.428Z,13.70
2018-03-20T16:47:23.334Z,13.60
2018-03-20T16:49:49.748Z,13.90
2018-03-20T16:52:16.115Z,14.00
2018-03-20T16:54:43.576Z,14.90
2018-03-20T16:57:11.122Z,14.80
2018-03-20T16:59:37.850Z,15.50
2018-03-20T17:02:04.916Z,15.50
2018-03-20T17:04:31.765Z,15.50
2018-03-20T17:06:58.292Z,15.90
2018-03-20T17:09:24.608Z,16.10
2018-03-20T17:11:50.877Z,16.10
2018-03-20T17:14:17.484Z,16.20
2018-03-20T17:16:47.003Z,17.20
2018-03-20T17:19:15.509Z,18.50
2018-03-20T17:21:42.010Z,20.00
2018-03-20T17:24:08.320Z,21.30
2018-03-20T17:26:35.321Z,22.50
2018-03-20T17:29:02.415Z,24.60
2018-03-20T17:31:28.833Z,24.60
2018-03-20T17:33:55.304Z,25.20
2018-03-20T17:36:21.580Z,25.70
2018-03-20T17:38:47.894Z,26.30
2018-03-20T17:41:15.404Z,26.80
2018-03-20T17:43:43.737Z,25.50
2018-03-20T17:46:10.049Z,25.20
2018-03-20T17:48:36.359Z,25.60
2018-03-20T17:51:02.791Z,25.10
2018-03-20T17:53:29.067Z,25.10
2018-03-20T17:56:00.522Z,25.30
2018-03-20T17:58:26.896Z,25.60
2018-03-20T18:00:53.642Z,26.00
2018-03-20T18:03:20.052Z,25.90
2018-03-20T18:05:47.091Z,26.30
2018-03-20T18:08:13.348Z,26.20
2018-03-20T18:10:40.362Z,26.80
2018-03-20T18:13:06.636Z,26.70
2018-03-20T18:15:33.028Z,26.70
2018-03-20T18:18:00.535Z,27.30
2018-03-20T18:20:27.165Z,27.30
2018-03-20T18:22:53.461Z,27.70
2018-03-20T18:25:20.706Z,28.70
2018-03-20T18:27:46.952Z,28.60
2018-03-20T18:30:13.227Z,28.60
2018-03-20T18:32:39.480Z,29.00
2018-03-20T18:35:05.754Z,28.80
2018-03-20T18:37:32.988Z,29.10
2018-03-20T18:39:59.267Z,29.00
2018-03-20T18:42:25.622Z,29.30
2018-03-20T18:44:51.940Z,29.90
2018-03-20T18:47:18.888Z,32.00
2018-03-20T18:49:45.162Z,32.00
2018-03-20T18:52:11.460Z,32.50
2018-03-20T18:54:37.717Z,33.20
2018-03-20T18:57:04.315Z,33.70
2018-03-20T18:59:31.125Z,32.50
2018-03-20T19:01:58.168Z,32.00
2018-03-20T19:04:24.462Z,32.00
2018-03-20T19:06:50.739Z,34.10
2018-03-20T19:09:17.374Z,34.80
2018-03-20T19:11:43.627Z,35.50
2018-03-20T19:14:10.108Z,33.80
2018-03-20T19:16:36.419Z,35.50
2018-03-20T19:19:02.863Z,35.30
2018-03-20T19:21:29.646Z,35.30
2018-03-20T19:23:56.016Z,35.40
2018-03-20T19:26:22.332Z,36.30
2018-03-20T19:28:48.592Z,36.30
2018-03-20T19:31:14.859Z,35.60
2018-03-20T19:33:41.103Z,36.80
2018-03-20T19:36:07.393Z,37.40
2018-03-20T19:38:33.864Z,36.50
2018-03-20T19:41:01.530Z,37.50
2018-03-20T19:43:27.783Z,37.30
2018-03-20T19:45:54.060Z,37.20
2018-03-20T19:48:20.303Z,36.70
2018-03-20T19:50:46.643Z,37.20
2018-03-20T19:53:12.936Z,37.50
2018-03-20T19:55:40.067Z,37.80
2018-03-20T19:58:06.499Z,38.30
2018-03-20T20:00:33.086Z,38.50
2018-03-20T20:02:59.912Z,39.20
2018-03-20T20:05:26.167Z,39.50
2018-03-20T20:07:56.069Z,39.90
2018-03-20T20:10:23.229Z,39.90
2018-03-20T20:12:59.916Z,40.00
2018-03-20T20:15:27.050Z,40.90
2018-03-20T20:17:54.390Z,40.80
2018-03-20T20:20:23.410Z,42.00
2018-03-20T20:22:54.912Z,42.00
2018-03-20T20:25:28.118Z,42.40
2018-03-20T20:27:54.908Z,42.50
2018-03-20T20:30:21.160Z,42.30
2018-03-20T20:32:47.796Z,42.00
2018-03-20T20:35:14.716Z,42.40
2018-03-20T20:37:41.560Z,42.50
2018-03-20T20:40:08.706Z,42.20
2018-03-20T20:42:35.016Z,42.20
2018-03-20T20:45:02.804Z,42.30
2018-03-20T20:47:29.335Z,42.50
2018-03-20T20:49:56.766Z,43.40
2018-03-20T20:52:23.021Z,43.10
2018-03-20T20:54:49.392Z,43.00
2018-03-20T20:57:16.508Z,43.00
2018-03-20T20:59:43.128Z,43.20
2018-03-20T21:02:09.407Z,43.10
2018-03-20T21:04:37.187Z,43.50
2018-03-20T21:07:04.302Z,43.60
2018-03-20T21:09:30.611Z,43.50
2018-03-20T21:11:56.907Z,43.80
2018-03-20T21:14:23.207Z,44.20
2018-03-20T21:16:49.454Z,44.50
2018-03-20T21:19:16.146Z,44.90
2018-03-20T21:21:42.445Z,45.00
2018-03-20T21:24:08.786Z,45.10
2018-03-20T21:26:35.123Z,45.50
2018-03-20T21:29:02.187Z,46.50
2018-03-20T21:31:28.493Z,46.50
2018-03-20T21:33:55.352Z,47.00
2018-03-20T21:36:21.716Z,47.50
2018-03-20T21:38:48.038Z,48.10
2018-03-20T21:41:14.306Z,47.90
2018-03-20T21:43:40.608Z,48.10
2018-03-20T21:46:07.090Z,47.70
2018-03-20T21:48:33.352Z,47.50
2018-03-20T21:50:59.920Z,47.60
2018-03-20T21:53:26.201Z,47.90
2018-03-20T21:55:52.604Z,48.10
2018-03-20T21:58:18.873Z,47.90
2018-03-20T22:00:46.810Z,49.10
2018-03-20T22:03:13.098Z,48.30
2018-03-20T22:05:39.372Z,48.80
2018-03-20T22:08:05.889Z,49.10
2018-03-20T22:10:32.208Z,49.30
2018-03-20T22:12:58.508Z,49.50
2018-03-20T22:15:24.839Z,49.80
2018-03-20T22:17:51.098Z,49.80
2018-03-20T22:20:17.379Z,50.00
2018-03-20T22:22:43.924Z,50.50
2018-03-20T22:25:10.203Z,50.20
2018-03-20T22:27:36.467Z,50.50
2018-03-20T22:30:02.787Z,51.10
2018-03-20T22:32:29.059Z,51.50
2018-03-20T22:34:55.355Z,52.00
2018-03-20T22:37:21.629Z,52.00
2018-03-20T22:39:47.923Z,51.80
2018-03-20T22:42:14.201Z,52.10
2018-03-20T22:44:41.192Z,52.80
2018-03-20T22:47:07.584Z,52.80
2018-03-20T22:49:33.835Z,53.30
2018-03-20T22:52:00.547Z,53.30
2018-03-20T22:54:26.797Z,53.40
2018-03-20T22:56:53.819Z,54.20
2018-03-20T22:59:20.124Z,54.20
2018-03-20T23:01:46.407Z,54.10
2018-03-20T23:04:12.683Z,53.30
2018-03-20T23:06:39.072Z,53.30
2018-03-20T23:09:05.388Z,54.00
2018-03-20T23:11:32.328Z,54.10
2018-03-20T23:13:59.151Z,54.90
2018-03-20T23:16:25.424Z,55.60
2018-03-20T23:18:51.675Z,55.50
2018-03-20T23:21:17.959Z,55.70
2018-03-20T23:23:44.421Z,56.20
2018-03-20T23:26:10.719Z,56.50
2018-03-20T23:28:36.975Z,56.80
2018-03-20T23:31:03.964Z,57.20
2018-03-20T23:33:30.263Z,57.20
2018-03-20T23:35:56.599Z,57.90
2018-03-20T23:38:38.399Z,58.40
2018-03-20T23:41:04.780Z,58.60
2018-03-20T23:43:31.160Z,58.70
2018-03-20T23:45:57.742Z,59.30
2018-03-20T23:48:24.016Z,59.70
2018-03-20T23:50:50.334Z,60.10
2018-03-20T23:53:16.606Z,59.70
2018-03-20T23:55:42.862Z,59.70
2018-03-20T23:58:09.119Z,60.00
